Time;durP1;ratioP1;P1;durP2;ratioP2;P2;SDS_P1;SDS_P2;PMS_P1;PMS_P2;Temp;Humidity;BMP_temperature;BMP_pressure;BME280_temperature;BME280_humidity;BME280_pressure;Samples;Min_cycle;Max_cycle;Signal;HPM_P1;HPM_P2
2021/05/27 00:00:07;;;;;;;7.30;4.78;;;;;;;;;;5011902;28;20025;-81
2021/05/27 00:02:32;;;;;;;8.85;4.68;;;;;;;;;;5012117;28;20014;-81
2021/05/27 00:04:57;;;;;;;11.88;5.10;;;;;;;;;;5012359;28;20018;-81
2021/05/27 00:07:23;;;;;;;10.32;5.00;;;;;;;;;;5026941;28;20054;-81
2021/05/27 00:09:48;;;;;;;9.98;4.63;;;;;;;;;;5012115;28;20358;-81
2021/05/27 00:12:13;;;;;;;8.95;5.07;;;;;;;;;;5012084;28;20429;-81
2021/05/27 00:14:38;;;;;;;9.48;4.90;;;;;;;;;;5010397;28;20016;-81
2021/05/27 00:17:03;;;;;;;7.63;4.63;;;;;;;;;;5027276;28;20022;-81
2021/05/27 00:19:29;;;;;;;13.40;5.03;;;;;;;;;;5011947;28;20018;-81
2021/05/27 00:21:54;;;;;;;6.78;4.45;;;;;;;;;;5011738;28;20018;-81
2021/05/27 00:24:19;;;;;;;9.68;4.60;;;;;;;;;;5010789;28;20478;-81
2021/05/27 00:26:44;;;;;;;8.80;4.80;;;;;;;;;;5010709;28;20014;-81
2021/05/27 00:29:10;;;;;;;13.57;5.75;;;;;;;;;;5011554;28;20493;-81
2021/05/27 00:31:35;;;;;;;10.75;5.63;;;;;;;;;;5011520;28;20014;-81
2021/05/27 00:34:00;;;;;;;16.08;5.95;;;;;;;;;;5027096;28;20110;-82
2021/05/27 00:36:26;;;;;;;9.10;5.82;;;;;;;;;;5010416;28;20108;-81
2021/05/27 00:38:51;;;;;;;9.18;5.43;;;;;;;;;;5010330;28;20427;-81
2021/05/27 00:41:16;;;;;;;10.50;5.43;;;;;;;;;;5011788;28;20022;-81
2021/05/27 00:43:41;;;;;;;8.43;4.57;;;;;;;;;;5010571;28;20054;-81
2021/05/27 00:46:06;;;;;;;12.38;5.25;;;;;;;;;;5027220;28;20560;-81
2021/05/27 00:49:05;;;;;;;7.45;4.25;;;;;;;;;;5011217;28;20041;-81
2021/05/27 00:51:23;;;;;;;10.07;4.97;;;;;;;;;;5009416;28;20090;-81
2021/05/27 00:53:49;;;;;;;9.95;5.05;;;;;;;;;;5010333;28;20018;-81
2021/05/27 00:56:14;;;;;;;9.45;5.00;;;;;;;;;;5010444;28;20022;-81
2021/05/27 00:58:41;;;;;;;10.02;5.25;;;;;;;;;;5010144;28;20032;-81
2021/05/27 01:01:06;;;;;;;14.55;5.53;;;;;;;;;;5010024;28;20033;-81
2021/05/27 01:03:32;;;;;;;10.43;4.88;;;;;;;;;;5026686;28;20469;-81
2021/05/27 01:05:57;;;;;;;9.45;5.63;;;;;;;;;;5010048;28;20045;-81
2021/05/27 01:08:22;;;;;;;12.50;6.00;;;;;;;;;;5010312;28;20022;-81
2021/05/27 01:10:47;;;;;;;12.27;6.35;;;;;;;;;;5011412;28;20022;-81
2021/05/27 01:13:12;;;;;;;11.10;6.75;;;;;;;;;;5011484;28;20053;-81
2021/05/27 01:15:39;;;;;;;11.48;7.00;;;;;;;;;;5026001;28;20033;-81
2021/05/27 01:18:07;;;;;;;13.73;7.40;;;;;;;;;;5026605;28;20521;-81
2021/05/27 01:20:33;;;;;;;13.40;7.65;;;;;;;;;;5009589;28;20051;-81
2021/05/27 01:22:58;;;;;;;18.20;8.57;;;;;;;;;;5010900;28;20049;-81
2021/05/27 01:25:23;;;;;;;17.95;10.05;;;;;;;;;;5010783;28;20022;-81
2021/05/27 01:27:48;;;;;;;17.25;9.40;;;;;;;;;;5009615;28;20015;-80
2021/05/27 01:30:14;;;;;;;17.17;9.75;;;;;;;;;;5009706;28;20026;-81
2021/05/27 01:32:39;;;;;;;17.73;8.98;;;;;;;;;;5010742;28;20033;-81
2021/05/27 01:35:06;;;;;;;16.48;9.75;;;;;;;;;;5009693;28;20397;-81
2021/05/27 01:37:31;;;;;;;25.23;11.77;;;;;;;;;;5010935;28;20071;-81
2021/05/27 01:39:56;;;;;;;17.17;11.40;;;;;;;;;;5011231;28;20017;-80
2021/05/27 01:42:22;;;;;;;17.70;10.52;;;;;;;;;;5009608;28;20064;-81
2021/05/27 01:44:48;;;;;;;21.73;10.80;;;;;;;;;;5010719;28;20022;-81
2021/05/27 01:47:13;;;;;;;19.08;10.73;;;;;;;;;;5009448;28;20068;-81
2021/05/27 01:49:39;;;;;;;18.63;10.90;;;;;;;;;;5010409;28;20059;-81
2021/05/27 01:52:04;;;;;;;20.10;10.50;;;;;;;;;;5009478;28;20054;-81
2021/05/27 01:54:29;;;;;;;21.73;11.40;;;;;;;;;;5010201;28;20064;-81
2021/05/27 01:56:55;;;;;;;14.23;9.73;;;;;;;;;;5009268;28;20023;-81
2021/05/27 01:59:20;;;;;;;18.00;10.43;;;;;;;;;;5025728;28;20477;-81
2021/05/27 02:01:45;;;;;;;21.02;12.18;;;;;;;;;;5010362;28;20022;-81
2021/05/27 02:04:10;;;;;;;20.13;10.30;;;;;;;;;;5018083;28;20401;-81
2021/05/27 02:06:35;;;;;;;18.80;11.32;;;;;;;;;;5009002;28;20041;-81
2021/05/27 02:09:10;;;;;;;17.73;9.80;;;;;;;;;;5010610;28;20097;-81
2021/05/27 02:11:40;;;;;;;18.42;10.40;;;;;;;;;;5009231;28;20163;-81
2021/05/27 02:14:06;;;;;;;20.05;11.15;;;;;;;;;;5010493;28;20026;-81
2021/05/27 02:16:31;;;;;;;19.38;10.65;;;;;;;;;;5008966;28;20018;-81
2021/05/27 02:18:57;;;;;;;21.10;11.23;;;;;;;;;;5021809;28;20028;-80
2021/05/27 02:21:22;;;;;;;16.35;10.48;;;;;;;;;;5008938;28;20109;-81
2021/05/27 02:23:47;;;;;;;19.45;10.10;;;;;;;;;;5008671;28;20020;-81
2021/05/27 02:26:12;;;;;;;18.10;10.50;;;;;;;;;;5008895;28;20021;-81
2021/05/27 02:28:37;;;;;;;21.15;12.02;;;;;;;;;;5008968;28;20033;-81
2021/05/27 02:31:03;;;;;;;20.95;12.65;;;;;;;;;;5008797;28;20022;-80
2021/05/27 02:33:28;;;;;;;19.05;11.02;;;;;;;;;;5014982;28;20051;-81
2021/05/27 02:35:54;;;;;;;21.50;10.65;;;;;;;;;;5008704;28;20075;-80
2021/05/27 02:38:19;;;;;;;21.35;12.02;;;;;;;;;;5008718;28;20060;-81
2021/05/27 02:40:44;;;;;;;22.13;13.32;;;;;;;;;;5008924;28;20034;-81
2021/05/27 02:43:09;;;;;;;25.25;13.40;;;;;;;;;;5009908;28;20465;-80
2021/05/27 02:45:35;;;;;;;20.35;13.32;;;;;;;;;;5009917;28;20050;-80
2021/05/27 02:48:00;;;;;;;28.45;15.05;;;;;;;;;;5008491;28;20029;-81
2021/05/27 02:50:25;;;;;;;25.08;13.77;;;;;;;;;;5009932;28;20033;-81
2021/05/27 02:52:50;;;;;;;27.02;16.35;;;;;;;;;;5010002;28;20029;-81
2021/05/27 02:55:15;;;;;;;27.27;14.98;;;;;;;;;;5009565;28;20504;-81
2021/05/27 02:57:41;;;;;;;26.75;17.95;;;;;;;;;;5008533;28;20163;-81
2021/05/27 03:00:06;;;;;;;34.38;17.20;;;;;;;;;;5009439;28;20147;-80
2021/05/27 03:02:31;;;;;;;35.90;17.42;;;;;;;;;;5009315;28;20025;-81
2021/05/27 03:04:56;;;;;;;31.27;17.25;;;;;;;;;;5008197;28;20018;-80
2021/05/27 03:07:22;;;;;;;26.10;15.15;;;;;;;;;;5010881;28;20465;-81
2021/05/27 03:09:47;;;;;;;25.23;15.63;;;;;;;;;;5011590;28;20022;-81
2021/05/27 03:12:12;;;;;;;26.52;15.68;;;;;;;;;;5010402;28;20480;-81
2021/05/27 03:14:37;;;;;;;29.23;17.45;;;;;;;;;;5011351;28;20079;-81
2021/05/27 03:17:03;;;;;;;29.58;17.83;;;;;;;;;;5009919;28;20033;-80
2021/05/27 03:19:28;;;;;;;29.25;20.30;;;;;;;;;;5009517;28;20030;-81
2021/05/27 03:21:53;;;;;;;27.55;17.05;;;;;;;;;;5009871;28;20363;-81
2021/05/27 03:24:18;;;;;;;26.58;16.65;;;;;;;;;;5011227;28;20018;-81
2021/05/27 03:26:43;;;;;;;30.42;16.25;;;;;;;;;;5010558;28;20034;-81
2021/05/27 03:29:09;;;;;;;27.63;16.88;;;;;;;;;;5009170;28;20054;-81
2021/05/27 03:31:34;;;;;;;32.25;18.23;;;;;;;;;;5009671;28;20026;-81
2021/05/27 03:33:59;;;;;;;30.92;18.77;;;;;;;;;;5010256;28;20034;-81
2021/05/27 03:36:24;;;;;;;28.67;17.88;;;;;;;;;;5022290;28;20036;-81
2021/05/27 03:38:49;;;;;;;30.98;18.05;;;;;;;;;;5011347;28;20492;-81
2021/05/27 03:41:15;;;;;;;33.45;18.33;;;;;;;;;;5012142;28;20022;-81
2021/05/27 03:43:40;;;;;;;30.70;16.50;;;;;;;;;;5011734;28;20099;-81
2021/05/27 03:46:05;;;;;;;33.22;18.45;;;;;;;;;;5011352;28;20021;-81
2021/05/27 03:48:30;;;;;;;36.47;22.17;;;;;;;;;;5012585;28;20028;-81
2021/05/27 03:50:55;;;;;;;34.25;20.23;;;;;;;;;;5011138;28;20030;-81
2021/05/27 03:53:21;;;;;;;34.05;20.02;;;;;;;;;;5011168;28;20358;-81
2021/05/27 03:55:46;;;;;;;33.72;20.73;;;;;;;;;;5011184;28;20025;-80
2021/05/27 04:00:54;;;;;;;37.10;19.60;;;;;;;;;;5013078;28;20500;-80
2021/05/27 04:03:21;;;;;;;37.33;23.65;;;;;;;;;;5012166;28;20026;-80
2021/05/27 04:08:30;;;;;;;39.38;20.92;;;;;;;;;;5014233;28;20033;-81
2021/05/27 04:10:56;;;;;;;39.55;21.67;;;;;;;;;;5012065;28;20018;-80
2021/05/27 04:13:21;;;;;;;37.88;22.63;;;;;;;;;;5010897;28;20427;-81
2021/05/27 04:15:47;;;;;;;40.05;21.83;;;;;;;;;;5010751;28;20029;-81
2021/05/27 04:18:14;;;;;;;37.75;21.23;;;;;;;;;;5010881;28;20109;-81
2021/05/27 04:20:39;;;;;;;36.67;20.50;;;;;;;;;;5026892;28;20018;-81
2021/05/27 04:23:07;;;;;;;41.05;21.15;;;;;;;;;;5011791;28;20016;-80
2021/05/27 04:25:32;;;;;;;42.70;22.05;;;;;;;;;;5011952;28;20018;-81
2021/05/27 04:27:58;;;;;;;40.38;20.60;;;;;;;;;;5012236;28;20022;-81
2021/05/27 04:30:24;;;;;;;39.63;22.77;;;;;;;;;;5019946;28;20108;-81
2021/05/27 04:32:57;;;;;;;41.33;20.92;;;;;;;;;;5011822;28;20022;-80
2021/05/27 04:35:24;;;;;;;38.78;21.27;;;;;;;;;;5010740;28;20018;-81
2021/05/27 04:37:49;;;;;;;38.70;24.08;;;;;;;;;;5010380;28;20043;-81
2021/05/27 04:40:15;;;;;;;38.25;24.38;;;;;;;;;;5011705;28;20029;-81
2021/05/27 04:42:41;;;;;;;39.58;21.25;;;;;;;;;;5011546;28;20053;-81
2021/05/27 04:45:06;;;;;;;39.38;21.77;;;;;;;;;;5011660;28;20358;-81
2021/05/27 04:47:31;;;;;;;48.03;22.60;;;;;;;;;;5011733;28;20014;-81
2021/05/27 04:49:56;;;;;;;40.80;23.27;;;;;;;;;;5011436;28;20010;-80
2021/05/27 04:52:21;;;;;;;42.92;20.92;;;;;;;;;;5010014;28;20018;-81
2021/05/27 04:54:47;;;;;;;41.80;24.25;;;;;;;;;;5011782;28;20036;-80
2021/05/27 04:57:12;;;;;;;43.15;21.20;;;;;;;;;;5010182;28;20026;-81
2021/05/27 04:59:37;;;;;;;29.45;18.65;;;;;;;;;;5010486;28;20024;-81
2021/05/27 05:02:02;;;;;;;33.50;20.08;;;;;;;;;;5010919;28;20464;-81
2021/05/27 05:04:27;;;;;;;34.70;19.83;;;;;;;;;;5009918;28;20030;-81
2021/05/27 05:06:53;;;;;;;40.00;19.33;;;;;;;;;;5009961;28;22206;-81
2021/05/27 05:09:18;;;;;;;40.97;17.98;;;;;;;;;;5009927;28;20385;-81
2021/05/27 05:11:43;;;;;;;36.45;18.92;;;;;;;;;;5009870;28;20054;-81
2021/05/27 05:14:08;;;;;;;37.53;19.42;;;;;;;;;;5011065;28;20022;-80
2021/05/27 05:16:33;;;;;;;37.33;20.70;;;;;;;;;;5009821;28;20026;-81
2021/05/27 05:18:58;;;;;;;33.05;17.98;;;;;;;;;;5009778;28;20449;-81
2021/05/27 05:21:24;;;;;;;33.72;16.90;;;;;;;;;;5009872;28;20034;-81
2021/05/27 05:23:49;;;;;;;31.98;17.20;;;;;;;;;;5011171;28;20385;-81
2021/05/27 05:26:14;;;;;;;24.02;14.45;;;;;;;;;;5009515;28;20041;-81
2021/05/27 05:28:39;;;;;;;33.38;15.00;;;;;;;;;;5010276;28;20049;-81
2021/05/27 05:31:04;;;;;;;34.85;16.05;;;;;;;;;;5009211;28;20205;-81
2021/05/27 05:33:29;;;;;;;28.88;15.07;;;;;;;;;;5010766;28;20033;-81
2021/05/27 05:35:55;;;;;;;29.58;13.98;;;;;;;;;;5004925;28;20034;-81
2021/05/27 05:38:20;;;;;;;29.80;15.02;;;;;;;;;;5038947;28;20125;-81
2021/05/27 05:40:45;;;;;;;31.20;14.55;;;;;;;;;;5103999;28;20031;-81
2021/05/27 05:43:10;;;;;;;25.90;12.50;;;;;;;;;;5009702;28;20029;-81
2021/05/27 05:45:36;;;;;;;22.90;10.52;;;;;;;;;;5030244;28;20094;-81
2021/05/27 05:48:01;;;;;;;32.55;12.93;;;;;;;;;;5042868;28;20023;-81
2021/05/27 05:50:45;;;;;;;23.20;11.65;;;;;;;;;;5009476;28;20029;-80
2021/05/27 05:53:11;;;;;;;28.77;11.88;;;;;;;;;;5011262;28;20051;-80
2021/05/27 05:55:36;;;;;;;26.25;11.65;;;;;;;;;;5010589;28;20014;-81
2021/05/27 05:58:02;;;;;;;29.95;13.35;;;;;;;;;;5025441;28;20041;-80
2021/05/27 06:00:27;;;;;;;29.30;13.02;;;;;;;;;;5009249;28;20036;-80
2021/05/27 06:02:53;;;;;;;27.73;12.55;;;;;;;;;;5020718;28;20025;-81
2021/05/27 06:05:18;;;;;;;25.77;11.80;;;;;;;;;;5012594;28;20070;-81
2021/05/27 06:07:43;;;;;;;31.40;13.35;;;;;;;;;;5026827;28;20534;-80
2021/05/27 06:10:09;;;;;;;25.20;12.65;;;;;;;;;;5076521;28;20029;-80
2021/05/27 06:12:34;;;;;;;30.25;12.30;;;;;;;;;;5011932;28;20022;-80
2021/05/27 06:14:59;;;;;;;27.60;11.32;;;;;;;;;;5078973;28;20031;-81
2021/05/27 06:17:24;;;;;;;29.40;10.43;;;;;;;;;;5013774;28;20021;-81
2021/05/27 06:19:50;;;;;;;13.60;6.03;;;;;;;;;;5016974;28;20051;-80
2021/05/27 06:22:15;;;;;;;13.02;5.35;;;;;;;;;;5023263;28;20022;-80
2021/05/27 06:24:40;;;;;;;12.93;4.18;;;;;;;;;;5034333;28;20517;-80
2021/05/27 06:27:05;;;;;;;18.83;5.68;;;;;;;;;;5012084;28;20050;-80
2021/05/27 06:29:30;;;;;;;13.63;5.65;;;;;;;;;;5023014;28;20024;-80
2021/05/27 06:31:56;;;;;;;18.02;4.38;;;;;;;;;;5016140;28;20026;-80
2021/05/27 06:34:21;;;;;;;14.50;4.95;;;;;;;;;;5044123;28;20028;-80
2021/05/27 06:36:46;;;;;;;12.18;4.60;;;;;;;;;;5020405;28;20030;-81
2021/05/27 06:39:11;;;;;;;9.65;4.38;;;;;;;;;;5085114;28;20027;-81
2021/05/27 06:41:36;;;;;;;8.60;4.20;;;;;;;;;;5062722;28;20864;-81
2021/05/27 06:44:02;;;;;;;14.73;4.47;;;;;;;;;;5064694;28;20465;-81
2021/05/27 06:46:27;;;;;;;13.48;4.55;;;;;;;;;;5042090;28;20025;-81
2021/05/27 06:48:53;;;;;;;12.00;4.53;;;;;;;;;;5071590;28;20413;-81
2021/05/27 06:51:19;;;;;;;10.30;4.28;;;;;;;;;;5084711;28;20023;-80
2021/05/27 06:53:44;;;;;;;11.35;4.78;;;;;;;;;;5076011;28;20044;-81
2021/05/27 06:56:09;;;;;;;12.32;4.30;;;;;;;;;;5047432;28;20028;-81
2021/05/27 06:58:35;;;;;;;12.25;3.65;;;;;;;;;;5066568;28;20014;-81
2021/05/27 07:01:00;;;;;;;13.75;4.72;;;;;;;;;;5083127;28;20024;-81
2021/05/27 07:03:25;;;;;;;8.02;4.28;;;;;;;;;;5075690;28;20016;-81
2021/05/27 07:05:51;;;;;;;12.50;4.38;;;;;;;;;;5071863;28;20022;-81
2021/05/27 07:08:16;;;;;;;10.55;4.22;;;;;;;;;;5087989;28;20019;-81
2021/05/27 07:10:41;;;;;;;11.23;4.30;;;;;;;;;;5061374;28;20036;-80
2021/05/27 07:13:07;;;;;;;12.07;4.18;;;;;;;;;;5087499;28;20763;-80
2021/05/27 07:15:33;;;;;;;12.70;3.97;;;;;;;;;;5066399;28;20014;-81
2021/05/27 07:17:58;;;;;;;14.00;4.57;;;;;;;;;;5035608;28;20023;-81
2021/05/27 07:20:24;;;;;;;17.77;4.40;;;;;;;;;;5076749;28;20023;-81
2021/05/27 07:22:50;;;;;;;13.85;4.35;;;;;;;;;;5056030;28;20022;-81
2021/05/27 07:25:16;;;;;;;11.63;4.10;;;;;;;;;;5011458;28;20457;-81
2021/05/27 07:27:43;;;;;;;12.82;4.68;;;;;;;;;;5012809;28;20025;-81
2021/05/27 07:30:08;;;;;;;16.73;4.93;;;;;;;;;;5011460;28;20022;-81
2021/05/27 07:32:33;;;;;;;11.40;4.07;;;;;;;;;;5012439;28;20025;-81
2021/05/27 07:34:59;;;;;;;15.35;4.45;;;;;;;;;;5011259;28;20022;-81
2021/05/27 07:37:24;;;;;;;12.70;4.53;;;;;;;;;;5013606;28;20026;-81
2021/05/27 07:39:49;;;;;;;10.65;4.40;;;;;;;;;;5011369;28;20049;-82
2021/05/27 07:42:15;;;;;;;12.68;4.88;;;;;;;;;;5027587;28;20083;-81
2021/05/27 07:44:40;;;;;;;9.43;4.35;;;;;;;;;;5012135;28;20026;-81
2021/05/27 07:47:05;;;;;;;16.15;5.15;;;;;;;;;;5012701;28;20022;-81
2021/05/27 07:49:30;;;;;;;19.80;5.10;;;;;;;;;;5011489;28;20029;-81
2021/05/27 07:51:56;;;;;;;11.98;4.47;;;;;;;;;;5014704;28;20030;-81
2021/05/27 07:54:21;;;;;;;12.20;4.40;;;;;;;;;;5010901;28;20026;-81
2021/05/27 07:56:47;;;;;;;9.93;4.15;;;;;;;;;;5011056;28;20029;-81
2021/05/27 07:59:13;;;;;;;10.60;4.22;;;;;;;;;;5012459;28;20369;-81
2021/05/27 08:01:39;;;;;;;10.23;4.22;;;;;;;;;;5012230;28;20022;-81
2021/05/27 08:04:04;;;;;;;11.95;4.60;;;;;;;;;;5014769;28;20033;-81
2021/05/27 08:06:29;;;;;;;13.73;4.90;;;;;;;;;;5012197;28;20025;-81
2021/05/27 08:08:55;;;;;;;14.95;4.55;;;;;;;;;;5027397;28;20408;-81
2021/05/27 08:11:20;;;;;;;11.77;4.72;;;;;;;;;;5011262;28;20495;-81
2021/05/27 08:13:46;;;;;;;18.48;6.05;;;;;;;;;;5012302;28;20021;-80
2021/05/27 08:16:12;;;;;;;13.10;5.25;;;;;;;;;;5011121;28;20071;-81
2021/05/27 08:18:37;;;;;;;14.93;4.85;;;;;;;;;;5012100;28;20632;-81
2021/05/27 08:21:02;;;;;;;12.05;4.85;;;;;;;;;;5011784;28;20024;-82
2021/05/27 08:23:27;;;;;;;8.75;5.18;;;;;;;;;;5011963;28;20376;-82
2021/05/27 08:25:52;;;;;;;11.50;5.72;;;;;;;;;;5026864;28;20018;-81
2021/05/27 08:28:18;;;;;;;20.25;6.38;;;;;;;;;;5011962;28;20022;-81
2021/05/27 08:30:43;;;;;;;12.77;6.57;;;;;;;;;;5012194;28;20029;-81
2021/05/27 08:33:08;;;;;;;15.35;7.05;;;;;;;;;;5012499;28;20025;-81
2021/05/27 08:35:33;;;;;;;14.88;5.97;;;;;;;;;;5011780;28;20566;-81
2021/05/27 08:37:59;;;;;;;15.75;6.57;;;;;;;;;;5011475;28;20018;-81
2021/05/27 08:40:24;;;;;;;14.70;6.55;;;;;;;;;;5010544;28;20435;-81
2021/05/27 08:42:50;;;;;;;14.63;6.82;;;;;;;;;;5010868;28;20026;-80
2021/05/27 08:45:16;;;;;;;21.40;6.32;;;;;;;;;;5011635;28;20022;-81
2021/05/27 08:47:41;;;;;;;20.17;7.50;;;;;;;;;;5011538;28;20014;-80
2021/05/27 08:50:08;;;;;;;15.80;6.13;;;;;;;;;;5011267;28;20423;-79
2021/05/27 08:52:33;;;;;;;12.98;6.35;;;;;;;;;;5011115;28;20377;-79
2021/05/27 08:54:59;;;;;;;19.42;6.25;;;;;;;;;;5026275;28;20036;-79
2021/05/27 08:57:24;;;;;;;14.70;6.07;;;;;;;;;;5010075;28;20049;-80
2021/05/27 08:59:49;;;;;;;20.80;7.45;;;;;;;;;;5011093;28;20462;-80
2021/05/27 09:02:15;;;;;;;16.98;6.70;;;;;;;;;;5011327;28;20419;-83
2021/05/27 09:04:40;;;;;;;21.10;6.45;;;;;;;;;;5018928;28;20108;-83
2021/05/27 09:07:06;;;;;;;11.80;5.70;;;;;;;;;;5012166;28;20472;-83
2021/05/27 09:09:50;;;;;;;16.67;6.90;;;;;;;;;;5026393;28;20465;-83
2021/05/27 09:12:28;;;;;;;15.40;6.93;;;;;;;;;;5009899;28;20017;-83
2021/05/27 09:14:54;;;;;;;13.35;7.60;;;;;;;;;;5032961;28;20113;-84
2021/05/27 09:17:20;;;;;;;18.15;6.40;;;;;;;;;;5010923;28;20045;-83
2021/05/27 09:20:05;;;;;;;17.60;7.85;;;;;;;;;;5018411;28;20017;-84
2021/05/27 09:22:30;;;;;;;15.23;7.57;;;;;;;;;;5009116;28;20025;-82
2021/05/27 09:24:55;;;;;;;18.27;7.88;;;;;;;;;;5009693;28;20036;-82
2021/05/27 09:27:40;;;;;;;15.35;7.68;;;;;;;;;;5026001;28;20074;-82
2021/05/27 09:30:06;;;;;;;18.10;7.70;;;;;;;;;;5010604;28;20060;-83
2021/05/27 09:32:36;;;;;;;15.77;8.32;;;;;;;;;;5011065;28;20477;-82
2021/05/27 09:35:03;;;;;;;19.50;8.25;;;;;;;;;;5010806;28;20514;-82
2021/05/27 09:37:29;;;;;;;23.45;8.55;;;;;;;;;;5009502;28;20022;-82
2021/05/27 09:39:55;;;;;;;15.57;7.75;;;;;;;;;;5025898;28;20389;-83
2021/05/27 09:42:20;;;;;;;12.57;7.35;;;;;;;;;;5009593;28;20026;-81
2021/05/27 09:44:46;;;;;;;15.20;7.43;;;;;;;;;;5025798;28;20018;-82
2021/05/27 09:47:11;;;;;;;13.38;6.25;;;;;;;;;;5009714;28;20366;-82
2021/05/27 09:50:03;;;;;;;19.52;7.55;;;;;;;;;;5010471;28;20454;-82
2021/05/27 09:52:38;;;;;;;10.82;4.53;;;;;;;;;;5012354;28;20030;-82
2021/05/27 09:55:07;;;;;;;19.27;6.75;;;;;;;;;;5008929;28;20404;-83
2021/05/27 09:57:33;;;;;;;13.43;5.07;;;;;;;;;;5009342;28;20018;-82
2021/05/27 09:59:58;;;;;;;13.63;6.38;;;;;;;;;;5010412;28;20025;-82
2021/05/27 10:02:23;;;;;;;12.95;5.07;;;;;;;;;;5009489;28;20427;-82
2021/05/27 10:04:55;;;;;;;10.80;4.00;;;;;;;;;;5009331;28;20426;-82
2021/05/27 10:07:52;;;;;;;10.70;4.90;;;;;;;;;;4997545;28;20050;-82
2021/05/27 10:10:22;;;;;;;8.13;4.07;;;;;;;;;;5021216;28;20121;-82
2021/05/27 10:12:48;;;;;;;14.32;4.47;;;;;;;;;;5010841;28;20030;-82
2021/05/27 10:15:17;;;;;;;13.77;4.00;;;;;;;;;;5008870;28;20368;-82
2021/05/27 10:17:46;;;;;;;7.78;3.50;;;;;;;;;;5010420;28;20468;-82
2021/05/27 10:20:12;;;;;;;9.27;3.40;;;;;;;;;;5010077;28;20384;-81
2021/05/27 10:22:38;;;;;;;8.25;3.40;;;;;;;;;;5008902;28;20022;-82
2021/05/27 10:25:07;;;;;;;7.55;2.75;;;;;;;;;;5008905;28;20033;-82
2021/05/27 10:27:33;;;;;;;17.80;3.83;;;;;;;;;;5025645;28;20026;-83
2021/05/27 10:29:58;;;;;;;9.77;3.20;;;;;;;;;;5021931;28;20018;-82
2021/05/27 10:32:25;;;;;;;7.85;2.80;;;;;;;;;;5011767;28;20022;-82
2021/05/27 10:34:50;;;;;;;13.35;3.55;;;;;;;;;;5009851;28;20416;-82
2021/05/27 10:37:34;;;;;;;9.55;3.83;;;;;;;;;;5010277;28;20022;-82
2021/05/27 10:40:22;;;;;;;15.82;4.75;;;;;;;;;;5008914;28;20018;-82
2021/05/27 10:42:57;;;;;;;9.93;3.53;;;;;;;;;;4995220;28;20034;-82
2021/05/27 10:45:22;;;;;;;9.10;3.25;;;;;;;;;;5009715;28;20018;-82
2021/05/27 10:48:06;;;;;;;9.77;3.67;;;;;;;;;;5010124;28;20018;-82
2021/05/27 10:53:42;;;;;;;9.90;3.67;;;;;;;;;;5073131;28;20073;-83
2021/05/27 10:56:08;;;;;;;9.63;4.30;;;;;;;;;;5010695;28;20052;-82
2021/05/27 10:58:49;;;;;;;5.10;2.58;;;;;;;;;;5009554;28;20097;-83
2021/05/27 11:01:18;;;;;;;9.75;4.03;;;;;;;;;;5008547;28;20026;-83
2021/05/27 11:03:50;;;;;;;12.43;5.50;;;;;;;;;;5010236;28;20418;-82
2021/05/27 11:06:23;;;;;;;14.30;4.82;;;;;;;;;;5009549;28;20063;-82
2021/05/27 11:09:13;;;;;;;12.57;4.50;;;;;;;;;;5063315;28;20018;-82
2021/05/27 11:11:42;;;;;;;10.95;4.15;;;;;;;;;;5008398;28;20082;-82
2021/05/27 11:14:16;;;;;;;10.73;3.97;;;;;;;;;;5010565;28;20078;-82
2021/05/27 11:17:00;;;;;;;9.30;3.65;;;;;;;;;;5021411;28;20045;-82
2021/05/27 11:19:57;;;;;;;15.93;4.00;;;;;;;;;;5018093;28;20095;-82
2021/05/27 11:25:15;;;;;;;13.52;3.50;;;;;;;;;;5060817;28;20106;-82
2021/05/27 11:27:44;;;;;;;14.23;3.88;;;;;;;;;;5025880;28;20037;-82
2021/05/27 11:30:14;;;;;;;15.13;4.53;;;;;;;;;;5013406;28;20021;-82
2021/05/27 11:32:39;;;;;;;12.25;4.47;;;;;;;;;;5079899;28;20023;-81
2021/05/27 11:35:04;;;;;;;13.18;4.43;;;;;;;;;;5013303;28;20026;-82
2021/05/27 11:37:34;;;;;;;15.30;3.85;;;;;;;;;;5020584;28;20018;-82
2021/05/27 11:39:59;;;;;;;16.27;3.60;;;;;;;;;;5011447;28;20389;-82
2021/05/27 11:42:24;;;;;;;26.00;5.00;;;;;;;;;;5013237;28;20038;-81
2021/05/27 11:44:56;;;;;;;8.68;3.38;;;;;;;;;;5011521;28;20132;-81
2021/05/27 11:47:22;;;;;;;11.18;3.42;;;;;;;;;;5011855;28;20401;-81
2021/05/27 11:50:00;;;;;;;13.75;3.50;;;;;;;;;;5011279;28;20030;-81
2021/05/27 11:52:25;;;;;;;10.32;2.92;;;;;;;;;;5011211;28;20094;-81
2021/05/27 11:54:52;;;;;;;14.00;3.45;;;;;;;;;;5012257;28;20063;-81
2021/05/27 11:57:18;;;;;;;9.65;3.00;;;;;;;;;;5048815;28;20478;-81
2021/05/27 11:59:43;;;;;;;9.93;3.10;;;;;;;;;;5078610;28;20076;-80
2021/05/27 12:02:10;;;;;;;12.48;3.75;;;;;;;;;;5011991;28;20021;-81
2021/05/27 12:04:35;;;;;;;10.27;3.72;;;;;;;;;;5013764;28;20029;-82
2021/05/27 12:07:05;;;;;;;10.13;3.67;;;;;;;;;;5010203;28;20022;-81
2021/05/27 12:09:30;;;;;;;13.70;3.20;;;;;;;;;;5011075;28;20037;-82
2021/05/27 12:11:56;;;;;;;11.45;3.72;;;;;;;;;;5026687;28;20473;-82
2021/05/27 12:14:22;;;;;;;11.85;3.65;;;;;;;;;;4993162;28;20029;-82
2021/05/27 12:16:47;;;;;;;11.27;3.35;;;;;;;;;;5070495;28;20016;-82
2021/05/27 12:19:13;;;;;;;14.27;3.17;;;;;;;;;;5030689;28;20053;-82
2021/05/27 12:21:48;;;;;;;9.45;3.28;;;;;;;;;;5040158;28;20029;-81
2021/05/27 12:24:20;;;;;;;11.02;3.20;;;;;;;;;;5011379;28;20045;-82
2021/05/27 12:26:49;;;;;;;9.07;3.83;;;;;;;;;;5010535;28;20057;-81
2021/05/27 12:29:14;;;;;;;12.13;3.78;;;;;;;;;;5008574;28;20469;-82
2021/05/27 12:31:39;;;;;;;10.35;3.85;;;;;;;;;;5009238;28;20079;-82
2021/05/27 12:34:07;;;;;;;9.60;3.45;;;;;;;;;;5009746;28;20026;-81
2021/05/27 12:36:32;;;;;;;9.82;4.35;;;;;;;;;;5011844;28;20521;-81
2021/05/27 12:38:58;;;;;;;11.90;3.33;;;;;;;;;;5018066;28;20113;-81
2021/05/27 12:41:23;;;;;;;13.13;3.95;;;;;;;;;;5047424;28;20026;-81
2021/05/27 12:43:52;;;;;;;14.90;4.50;;;;;;;;;;5010629;28;20377;-82
2021/05/27 12:46:30;;;;;;;13.23;4.38;;;;;;;;;;5019453;28;20021;-82
2021/05/27 12:48:56;;;;;;;17.63;4.70;;;;;;;;;;5011606;28;20022;-82
2021/05/27 12:51:22;;;;;;;12.68;3.95;;;;;;;;;;5011320;28;20106;-82
2021/05/27 12:53:47;;;;;;;13.05;4.18;;;;;;;;;;5011393;28;20151;-82
2021/05/27 12:56:14;;;;;;;14.12;4.54;;;;;;;;;;5010300;28;20100;-82
2021/05/27 12:58:41;;;;;;;16.55;4.93;;;;;;;;;;5026496;28;20022;-82
2021/05/27 13:01:07;;;;;;;15.70;4.68;;;;;;;;;;5018392;28;20097;-82
2021/05/27 13:03:48;;;;;;;13.05;4.70;;;;;;;;;;5026508;28;20044;-82
2021/05/27 13:06:15;;;;;;;9.18;3.80;;;;;;;;;;5010169;28;20504;-82
2021/05/27 13:08:41;;;;;;;12.52;3.67;;;;;;;;;;5009655;28;20537;-82
2021/05/27 13:11:16;;;;;;;11.57;4.00;;;;;;;;;;5009886;28;20052;-82
2021/05/27 13:13:41;;;;;;;15.05;4.93;;;;;;;;;;5011179;28;20117;-82
2021/05/27 13:16:07;;;;;;;21.25;4.15;;;;;;;;;;5009700;28;20441;-82
2021/05/27 13:18:32;;;;;;;14.70;4.72;;;;;;;;;;5009960;28;20116;-82
2021/05/27 13:21:01;;;;;;;12.63;4.72;;;;;;;;;;5015469;28;20029;-82
2021/05/27 13:23:31;;;;;;;15.55;5.10;;;;;;;;;;5025427;28;20026;-82
2021/05/27 13:26:13;;;;;;;11.52;5.72;;;;;;;;;;5015257;28;20010;-82
2021/05/27 13:28:39;;;;;;;20.55;5.80;;;;;;;;;;5011397;28;20017;-82
2021/05/27 13:31:04;;;;;;;14.50;5.15;;;;;;;;;;5025998;28;20022;-82
2021/05/27 13:33:29;;;;;;;12.38;5.18;;;;;;;;;;5043308;28;20386;-82
2021/05/27 13:35:57;;;;;;;12.48;4.18;;;;;;;;;;5023290;28;20018;-82
2021/05/27 13:38:24;;;;;;;9.23;3.70;;;;;;;;;;4997228;28;20056;-82
2021/05/27 13:40:50;;;;;;;9.77;3.22;;;;;;;;;;5010630;28;20030;-81
2021/05/27 13:43:15;;;;;;;10.07;3.28;;;;;;;;;;5009096;28;20097;-81
2021/05/27 13:45:40;;;;;;;9.90;3.90;;;;;;;;;;5044301;27;20028;-81
2021/05/27 13:48:06;;;;;;;15.25;4.22;;;;;;;;;;5017312;28;20022;-82
2021/05/27 13:50:32;;;;;;;18.98;4.03;;;;;;;;;;5008546;28;20381;-82
2021/05/27 13:53:01;;;;;;;10.25;3.65;;;;;;;;;;5009099;28;20146;-81
2021/05/27 13:55:27;;;;;;;10.95;4.03;;;;;;;;;;5008913;28;20380;-82
2021/05/27 13:57:52;;;;;;;12.13;4.20;;;;;;;;;;5009484;28;20064;-81
2021/05/27 14:00:18;;;;;;;10.55;3.70;;;;;;;;;;5010504;28;20489;-82
2021/05/27 14:02:44;;;;;;;21.63;4.43;;;;;;;;;;5049302;28;20026;-82
2021/05/27 14:05:09;;;;;;;8.57;4.28;;;;;;;;;;5008811;28;20362;-82
2021/05/27 14:07:34;;;;;;;13.20;4.30;;;;;;;;;;5009037;28;20032;-82
2021/05/27 14:10:00;;;;;;;13.43;4.65;;;;;;;;;;5025230;28;20022;-81
2021/05/27 14:12:25;;;;;;;10.50;4.57;;;;;;;;;;5020695;28;20021;-82
2021/05/27 14:14:52;;;;;;;14.82;5.22;;;;;;;;;;5031114;28;20462;-82
2021/05/27 14:17:17;;;;;;;13.80;5.10;;;;;;;;;;5008959;28;20022;-81
2021/05/27 14:19:42;;;;;;;15.15;4.80;;;;;;;;;;5018450;28;20032;-82
2021/05/27 14:22:07;;;;;;;18.92;5.10;;;;;;;;;;5068933;27;20112;-81
2021/05/27 14:24:34;;;;;;;22.20;6.10;;;;;;;;;;5010480;28;20469;-82
2021/05/27 14:27:00;;;;;;;20.25;6.20;;;;;;;;;;5030847;28;20037;-82
2021/05/27 14:29:25;;;;;;;21.25;6.40;;;;;;;;;;5028421;28;20026;-81
2021/05/27 14:31:53;;;;;;;13.55;5.43;;;;;;;;;;5014154;28;20374;-81
2021/05/27 14:34:19;;;;;;;16.77;5.25;;;;;;;;;;5021282;28;20032;-80
2021/05/27 14:36:44;;;;;;;13.95;4.28;;;;;;;;;;5008328;28;20556;-81